Addison, Ohio
Current Conditions -  °F | °C
As of 2:15 PM on Friday 24 Oct 2014 (Local Time) from K3I2 Reporting Station
Clear Clear  
Wind Chill: 64°   Ceiling: Unl
Heat Index: 64°   Visibility: 10mi
Dew Point: 41°   Wind: 0mph
Humidity: 42%   Direction: NA
Pressure: 30.08"   Gusts: NA
Location:  38.7997°N, 82.2553°W
Report Text: K3I2 241815Z AUTO 00000KT 10SM CLR 18/05 A3008 RMK AO2
Loading
Personal Weather Stations






























Interactive Weather Map
Tropical Storm Tracking
New forecast layout! Learn more

10-Day Weather Forecast

Advertisements
Track Severe Weather on mobile